Revninge Flyveplads

DK-0036 · 南丹麦大区, 丹麦

罗盘
风向 的 风向 180° Revninge Flyveplads 18/36
风: 16 kt, 4 beaufort

16 kt

改变
0 ft 1.000 2.000 3.000 4.000 5.000
Cloud Cloud Cloud Cloud Cloud Cloud
BKN 1.900
METAR EKOD 231520Z 18016KT 9999 BKN019 07/03 Q0990

METAR Revninge Flyveplads - DK-0036

Revninge Flyveplads是,丹麦中的小机场。 该机场位于纬度55,41899和经度10,67060。 该机场有一条跑道: 18/36. 这个机场没有ICAO代码,我们使用DK-0036作为参考。 机场在Kobenhavn FIR中。

该航空气象观测是针对Odense Airport在2024年2月23日 16:20, 当地时间进行的。

机场观察

风向为180°,速度为16 kt。

可见度为10 km 或者更多。

有碎云在1.900 ft的高度。 破损或更高的上限为1.900 ft。

温度为7 °C,阵风为1 °C。 露点为3 °C,相对湿度为76%。 海平面上的气压为990 hPa (QNH)。

白天

今天,太阳从07:23升起,在17:38降落。 这适用于Revninge Flyveplads,世界夏令时可能有所不同。 当地时间与世界标准时间之间的时差为+1 小时。 当前,没有夏令时有效。

公司介绍

我们没有关于这个机场的公司信息。

体会

到Vliegles.nl去找飞行课程,跳伞和其他飞行体验。 浏览页面,了解Revninge Flyveplads附近所有可用的活动。 你也可以使用搜索功能来寻找你所在地附近的特定飞行课程、跳伞或其他飞行体验。

跑道

Id 标题 侧风 逆风 侧风 %
18/36 179°-359° 16 kt 2 %

逆风成分最大的方向会被突出显示,并用于横风计算。 这并不一定意味着这个方向在使用。

乌云

1.900 ft BKN 碎云

温度 & 天气

温度 7 °C
露点 3 °C
相对湿度 76%
风寒 1 °C
Kp-index 0 (0-9)

白天

日出
07:24
中午
12:32
日落
17:39 (42m)

小工具

你想在你的网站上有一个关于Revninge Flyveplads的当前航空天气(METAR)的小部件吗?

显示HTML代码
?>